sensor_id;sensor_type;location;lat;lon;timestamp;P1;durP1;ratioP1;P2;durP2;ratioP2
33760;SDS011;20084;47.912;19.044;2022-12-26T00:01:53;15.52;;;11.13;;
33760;SDS011;20084;47.912;19.044;2022-12-26T00:04:20;16.30;;;10.65;;
33760;SDS011;20084;47.912;19.044;2022-12-26T00:06:46;20.67;;;12.02;;
33760;SDS011;20084;47.912;19.044;2022-12-26T00:09:11;16.50;;;11.68;;
33760;SDS011;20084;47.912;19.044;2022-12-26T00:11:37;17.48;;;11.18;;
33760;SDS011;20084;47.912;19.044;2022-12-26T00:14:10;19.83;;;14.10;;
33760;SDS011;20084;47.912;19.044;2022-12-26T00:16:39;17.45;;;11.65;;
33760;SDS011;20084;47.912;19.044;2022-12-26T00:19:06;18.35;;;12.27;;
33760;SDS011;20084;47.912;19.044;2022-12-26T00:21:32;17.88;;;12.45;;
33760;SDS011;20084;47.912;19.044;2022-12-26T00:23:58;18.13;;;11.50;;
33760;SDS011;20084;47.912;19.044;2022-12-26T00:26:25;18.10;;;12.07;;
33760;SDS011;20084;47.912;19.044;2022-12-26T00:28:53;16.77;;;11.63;;
33760;SDS011;20084;47.912;19.044;2022-12-26T00:31:24;15.93;;;10.73;;
33760;SDS011;20084;47.912;19.044;2022-12-26T00:33:57;16.45;;;11.55;;
33760;SDS011;20084;47.912;19.044;2022-12-26T00:36:24;14.73;;;10.30;;
33760;SDS011;20084;47.912;19.044;2022-12-26T00:38:53;20.75;;;12.77;;
33760;SDS011;20084;47.912;19.044;2022-12-26T00:41:19;28.95;;;16.92;;
33760;SDS011;20084;47.912;19.044;2022-12-26T00:43:45;39.00;;;22.15;;
33760;SDS011;20084;47.912;19.044;2022-12-26T00:46:11;16.80;;;11.88;;
33760;SDS011;20084;47.912;19.044;2022-12-26T00:48:37;37.42;;;20.80;;
33760;SDS011;20084;47.912;19.044;2022-12-26T00:51:03;17.10;;;10.23;;
33760;SDS011;20084;47.912;19.044;2022-12-26T00:53:29;15.55;;;9.95;;
33760;SDS011;20084;47.912;19.044;2022-12-26T00:55:55;15.85;;;10.18;;
33760;SDS011;20084;47.912;19.044;2022-12-26T00:58:21;13.95;;;9.63;;
33760;SDS011;20084;47.912;19.044;2022-12-26T01:00:47;14.20;;;9.90;;
33760;SDS011;20084;47.912;19.044;2022-12-26T01:03:13;13.18;;;9.35;;
33760;SDS011;20084;47.912;19.044;2022-12-26T01:05:40;14.38;;;9.25;;
33760;SDS011;20084;47.912;19.044;2022-12-26T01:08:06;12.20;;;9.32;;
33760;SDS011;20084;47.912;19.044;2022-12-26T01:10:32;15.52;;;10.27;;
33760;SDS011;20084;47.912;19.044;2022-12-26T01:12:57;16.63;;;10.93;;
33760;SDS011;20084;47.912;19.044;2022-12-26T01:15:23;15.50;;;10.55;;
33760;SDS011;20084;47.912;19.044;2022-12-26T01:17:49;20.33;;;13.05;;
33760;SDS011;20084;47.912;19.044;2022-12-26T01:20:14;20.55;;;12.82;;
33760;SDS011;20084;47.912;19.044;2022-12-26T01:22:40;20.55;;;12.60;;
33760;SDS011;20084;47.912;19.044;2022-12-26T01:25:06;17.15;;;11.50;;
33760;SDS011;20084;47.912;19.044;2022-12-26T01:27:32;24.52;;;15.45;;
33760;SDS011;20084;47.912;19.044;2022-12-26T01:29:57;24.23;;;15.45;;
33760;SDS011;20084;47.912;19.044;2022-12-26T01:32:23;17.70;;;12.38;;
33760;SDS011;20084;47.912;19.044;2022-12-26T01:34:49;17.27;;;12.23;;
33760;SDS011;20084;47.912;19.044;2022-12-26T01:37:16;16.83;;;12.57;;
33760;SDS011;20084;47.912;19.044;2022-12-26T01:39:42;16.42;;;12.00;;
33760;SDS011;20084;47.912;19.044;2022-12-26T01:42:11;16.27;;;11.77;;
33760;SDS011;20084;47.912;19.044;2022-12-26T01:47:36;24.63;;;14.98;;
33760;SDS011;20084;47.912;19.044;2022-12-26T01:50:13;21.00;;;14.95;;
33760;SDS011;20084;47.912;19.044;2022-12-26T01:53:26;18.33;;;12.95;;
33760;SDS011;20084;47.912;19.044;2022-12-26T01:56:13;18.35;;;12.82;;
33760;SDS011;20084;47.912;19.044;2022-12-26T01:59:27;17.58;;;12.52;;
33760;SDS011;20084;47.912;19.044;2022-12-26T02:01:36;15.85;;;12.35;;
33760;SDS011;20084;47.912;19.044;2022-12-26T02:04:04;17.75;;;13.27;;
33760;SDS011;20084;47.912;19.044;2022-12-26T02:06:52;14.82;;;12.55;;
33760;SDS011;20084;47.912;19.044;2022-12-26T02:09:18;16.13;;;12.68;;
33760;SDS011;20084;47.912;19.044;2022-12-26T02:11:52;19.80;;;14.50;;
33760;SDS011;20084;47.912;19.044;2022-12-26T02:14:25;19.42;;;13.88;;
33760;SDS011;20084;47.912;19.044;2022-12-26T02:16:51;22.52;;;13.95;;
33760;SDS011;20084;47.912;19.044;2022-12-26T02:19:28;20.42;;;14.32;;
33760;SDS011;20084;47.912;19.044;2022-12-26T02:42:10;20.38;;;14.50;;
33760;SDS011;20084;47.912;19.044;2022-12-26T02:50:36;21.42;;;15.32;;
33760;SDS011;20084;47.912;19.044;2022-12-26T02:56:52;19.80;;;14.63;;
33760;SDS011;20084;47.912;19.044;2022-12-26T02:59:44;20.33;;;15.48;;
33760;SDS011;20084;47.912;19.044;2022-12-26T03:02:45;19.67;;;15.52;;
33760;SDS011;20084;47.912;19.044;2022-12-26T03:05:35;22.67;;;14.95;;
33760;SDS011;20084;47.912;19.044;2022-12-26T03:08:37;20.00;;;15.02;;
33760;SDS011;20084;47.912;19.044;2022-12-26T03:11:37;20.15;;;15.32;;
33760;SDS011;20084;47.912;19.044;2022-12-26T03:14:25;27.35;;;20.27;;
33760;SDS011;20084;47.912;19.044;2022-12-26T03:17:03;24.35;;;17.95;;
33760;SDS011;20084;47.912;19.044;2022-12-26T03:19:54;21.77;;;16.02;;
33760;SDS011;20084;47.912;19.044;2022-12-26T03:22:25;23.15;;;16.92;;
33760;SDS011;20084;47.912;19.044;2022-12-26T03:24:59;26.10;;;17.48;;
33760;SDS011;20084;47.912;19.044;2022-12-26T03:27:47;23.38;;;17.13;;
33760;SDS011;20084;47.912;19.044;2022-12-26T03:30:13;20.67;;;17.00;;
33760;SDS011;20084;47.912;19.044;2022-12-26T03:32:58;21.60;;;16.60;;
33760;SDS011;20084;47.912;19.044;2022-12-26T03:35:24;23.02;;;17.50;;
33760;SDS011;20084;47.912;19.044;2022-12-26T03:38:04;21.50;;;15.35;;
33760;SDS011;20084;47.912;19.044;2022-12-26T03:44:11;21.10;;;15.93;;
33760;SDS011;20084;47.912;19.044;2022-12-26T03:47:11;22.92;;;16.83;;
33760;SDS011;20084;47.912;19.044;2022-12-26T03:50:30;18.13;;;15.00;;
33760;SDS011;20084;47.912;19.044;2022-12-26T03:53:19;20.73;;;14.70;;
33760;SDS011;20084;47.912;19.044;2022-12-26T03:56:19;21.80;;;16.02;;
33760;SDS011;20084;47.912;19.044;2022-12-26T03:59:15;18.42;;;15.00;;
33760;SDS011;20084;47.912;19.044;2022-12-26T04:02:06;21.45;;;15.60;;
33760;SDS011;20084;47.912;19.044;2022-12-26T04:04:54;21.10;;;16.25;;
33760;SDS011;20084;47.912;19.044;2022-12-26T04:07:42;17.95;;;14.60;;
33760;SDS011;20084;47.912;19.044;2022-12-26T04:10:32;18.88;;;14.60;;
33760;SDS011;20084;47.912;19.044;2022-12-26T04:13:27;22.05;;;15.40;;
33760;SDS011;20084;47.912;19.044;2022-12-26T04:24:46;23.25;;;17.10;;
33760;SDS011;20084;47.912;19.044;2022-12-26T04:27:52;23.00;;;16.40;;
33760;SDS011;20084;47.912;19.044;2022-12-26T04:30:37;21.58;;;17.08;;
33760;SDS011;20084;47.912;19.044;2022-12-26T04:33:32;29.27;;;19.13;;
33760;SDS011;20084;47.912;19.044;2022-12-26T04:36:27;35.53;;;23.15;;
33760;SDS011;20084;47.912;19.044;2022-12-26T04:39:17;32.58;;;23.00;;
33760;SDS011;20084;47.912;19.044;2022-12-26T04:42:05;45.00;;;28.23;;
33760;SDS011;20084;47.912;19.044;2022-12-26T04:44:52;50.20;;;33.38;;
33760;SDS011;20084;47.912;19.044;2022-12-26T04:47:19;40.85;;;25.83;;
33760;SDS011;20084;47.912;19.044;2022-12-26T04:49:45;36.17;;;23.83;;
33760;SDS011;20084;47.912;19.044;2022-12-26T04:52:29;39.97;;;25.30;;
33760;SDS011;20084;47.912;19.044;2022-12-26T04:55:14;40.97;;;23.75;;
33760;SDS011;20084;47.912;19.044;2022-12-26T04:57:40;27.88;;;19.52;;
33760;SDS011;20084;47.912;19.044;2022-12-26T05:00:06;32.63;;;20.90;;
33760;SDS011;20084;47.912;19.044;2022-12-26T05:02:32;32.58;;;21.38;;
33760;SDS011;20084;47.912;19.044;2022-12-26T05:05:16;30.00;;;19.73;;
33760;SDS011;20084;47.912;19.044;2022-12-26T05:08:01;28.58;;;19.05;;
33760;SDS011;20084;47.912;19.044;2022-12-26T05:10:45;26.77;;;18.90;;
33760;SDS011;20084;47.912;19.044;2022-12-26T05:13:10;31.92;;;19.50;;
33760;SDS011;20084;47.912;19.044;2022-12-26T05:15:36;27.30;;;19.27;;
33760;SDS011;20084;47.912;19.044;2022-12-26T05:18:22;33.30;;;20.20;;
33760;SDS011;20084;47.912;19.044;2022-12-26T05:21:12;31.27;;;19.10;;
33760;SDS011;20084;47.912;19.044;2022-12-26T05:24:00;30.75;;;20.45;;
33760;SDS011;20084;47.912;19.044;2022-12-26T05:26:45;30.17;;;19.50;;
33760;SDS011;20084;47.912;19.044;2022-12-26T05:29:29;31.67;;;20.83;;
33760;SDS011;20084;47.912;19.044;2022-12-26T05:31:55;36.60;;;22.00;;
33760;SDS011;20084;47.912;19.044;2022-12-26T05:34:20;31.98;;;20.85;;
33760;SDS011;20084;47.912;19.044;2022-12-26T05:36:47;36.25;;;21.30;;
33760;SDS011;20084;47.912;19.044;2022-12-26T05:39:15;37.40;;;22.00;;
33760;SDS011;20084;47.912;19.044;2022-12-26T05:41:41;29.88;;;20.05;;
33760;SDS011;20084;47.912;19.044;2022-12-26T05:44:07;30.48;;;20.27;;
33760;SDS011;20084;47.912;19.044;2022-12-26T05:46:34;35.33;;;20.25;;
33760;SDS011;20084;47.912;19.044;2022-12-26T05:49:00;32.42;;;20.08;;
33760;SDS011;20084;47.912;19.044;2022-12-26T05:51:26;35.58;;;20.45;;
33760;SDS011;20084;47.912;19.044;2022-12-26T05:53:52;33.60;;;20.75;;
33760;SDS011;20084;47.912;19.044;2022-12-26T05:56:18;34.13;;;21.67;;
33760;SDS011;20084;47.912;19.044;2022-12-26T05:58:44;31.02;;;19.75;;
33760;SDS011;20084;47.912;19.044;2022-12-26T06:03:37;34.58;;;20.60;;
33760;SDS011;20084;47.912;19.044;2022-12-26T06:06:05;36.63;;;20.92;;
33760;SDS011;20084;47.912;19.044;2022-12-26T06:08:31;33.58;;;20.10;;
33760;SDS011;20084;47.912;19.044;2022-12-26T06:10:57;38.08;;;20.25;;
33760;SDS011;20084;47.912;19.044;2022-12-26T06:13:23;37.85;;;21.65;;
33760;SDS011;20084;47.912;19.044;2022-12-26T06:15:49;35.42;;;21.60;;
33760;SDS011;20084;47.912;19.044;2022-12-26T06:18:15;36.53;;;22.33;;
33760;SDS011;20084;47.912;19.044;2022-12-26T06:20:40;38.05;;;21.75;;
33760;SDS011;20084;47.912;19.044;2022-12-26T06:23:06;34.20;;;21.52;;
33760;SDS011;20084;47.912;19.044;2022-12-26T06:25:31;35.03;;;21.48;;
33760;SDS011;20084;47.912;19.044;2022-12-26T06:27:57;42.80;;;25.80;;
33760;SDS011;20084;47.912;19.044;2022-12-26T06:30:23;35.33;;;22.67;;
33760;SDS011;20084;47.912;19.044;2022-12-26T06:32:48;39.67;;;23.80;;
33760;SDS011;20084;47.912;19.044;2022-12-26T06:35:14;41.80;;;22.77;;
33760;SDS011;20084;47.912;19.044;2022-12-26T06:37:40;39.40;;;22.48;;
33760;SDS011;20084;47.912;19.044;2022-12-26T06:40:05;41.22;;;22.90;;
33760;SDS011;20084;47.912;19.044;2022-12-26T06:42:31;37.47;;;22.83;;
33760;SDS011;20084;47.912;19.044;2022-12-26T06:44:57;38.65;;;22.25;;
33760;SDS011;20084;47.912;19.044;2022-12-26T06:47:23;39.10;;;22.08;;
33760;SDS011;20084;47.912;19.044;2022-12-26T06:49:48;39.42;;;22.10;;
33760;SDS011;20084;47.912;19.044;2022-12-26T06:52:14;38.88;;;22.95;;
33760;SDS011;20084;47.912;19.044;2022-12-26T06:54:40;42.50;;;23.35;;
33760;SDS011;20084;47.912;19.044;2022-12-26T06:57:05;45.67;;;25.45;;
33760;SDS011;20084;47.912;19.044;2022-12-26T06:59:31;45.55;;;24.55;;
33760;SDS011;20084;47.912;19.044;2022-12-26T07:01:57;45.33;;;25.60;;
33760;SDS011;20084;47.912;19.044;2022-12-26T07:04:22;57.20;;;28.42;;
33760;SDS011;20084;47.912;19.044;2022-12-26T07:06:48;54.75;;;28.67;;
33760;SDS011;20084;47.912;19.044;2022-12-26T07:09:15;51.67;;;28.92;;
33760;SDS011;20084;47.912;19.044;2022-12-26T07:11:43;49.30;;;26.90;;
33760;SDS011;20084;47.912;19.044;2022-12-26T07:14:10;55.28;;;30.88;;
33760;SDS011;20084;47.912;19.044;2022-12-26T07:16:37;48.05;;;27.23;;
33760;SDS011;20084;47.912;19.044;2022-12-26T07:19:03;46.38;;;25.38;;
33760;SDS011;20084;47.912;19.044;2022-12-26T07:21:30;45.17;;;27.60;;
33760;SDS011;20084;47.912;19.044;2022-12-26T07:23:55;53.85;;;31.80;;
33760;SDS011;20084;47.912;19.044;2022-12-26T07:26:21;66.43;;;37.65;;
33760;SDS011;20084;47.912;19.044;2022-12-26T07:28:51;61.15;;;35.88;;
33760;SDS011;20084;47.912;19.044;2022-12-26T07:31:20;57.85;;;33.10;;
33760;SDS011;20084;47.912;19.044;2022-12-26T07:33:50;56.15;;;33.08;;
33760;SDS011;20084;47.912;19.044;2022-12-26T07:36:19;46.00;;;25.15;;
33760;SDS011;20084;47.912;19.044;2022-12-26T07:38:45;64.28;;;37.55;;
33760;SDS011;20084;47.912;19.044;2022-12-26T07:41:11;70.03;;;39.25;;
33760;SDS011;20084;47.912;19.044;2022-12-26T07:43:56;59.13;;;28.08;;
33760;SDS011;20084;47.912;19.044;2022-12-26T07:46:22;43.55;;;22.95;;
33760;SDS011;20084;47.912;19.044;2022-12-26T07:48:48;40.75;;;22.38;;
33760;SDS011;20084;47.912;19.044;2022-12-26T07:51:13;44.35;;;23.15;;
33760;SDS011;20084;47.912;19.044;2022-12-26T07:53:39;42.75;;;21.92;;
33760;SDS011;20084;47.912;19.044;2022-12-26T07:56:05;43.05;;;24.02;;
33760;SDS011;20084;47.912;19.044;2022-12-26T07:58:31;46.20;;;23.75;;
33760;SDS011;20084;47.912;19.044;2022-12-26T08:01:00;48.80;;;24.83;;
33760;SDS011;20084;47.912;19.044;2022-12-26T08:03:27;44.22;;;24.63;;
33760;SDS011;20084;47.912;19.044;2022-12-26T08:05:52;51.33;;;24.58;;
33760;SDS011;20084;47.912;19.044;2022-12-26T08:08:18;45.03;;;23.75;;
33760;SDS011;20084;47.912;19.044;2022-12-26T08:10:44;49.00;;;24.27;;
33760;SDS011;20084;47.912;19.044;2022-12-26T08:13:09;50.22;;;24.13;;
33760;SDS011;20084;47.912;19.044;2022-12-26T08:15:38;45.38;;;24.60;;
33760;SDS011;20084;47.912;19.044;2022-12-26T08:18:04;47.45;;;25.02;;
33760;SDS011;20084;47.912;19.044;2022-12-26T08:20:30;48.75;;;25.33;;
33760;SDS011;20084;47.912;19.044;2022-12-26T08:22:56;45.47;;;24.20;;
33760;SDS011;20084;47.912;19.044;2022-12-26T08:25:22;54.35;;;30.95;;
33760;SDS011;20084;47.912;19.044;2022-12-26T08:27:48;51.13;;;27.17;;
33760;SDS011;20084;47.912;19.044;2022-12-26T08:30:13;44.72;;;25.25;;
33760;SDS011;20084;47.912;19.044;2022-12-26T08:32:39;47.47;;;24.48;;
33760;SDS011;20084;47.912;19.044;2022-12-26T08:35:05;42.95;;;23.15;;
33760;SDS011;20084;47.912;19.044;2022-12-26T08:37:31;43.50;;;24.35;;
33760;SDS011;20084;47.912;19.044;2022-12-26T08:39:57;47.20;;;24.75;;
33760;SDS011;20084;47.912;19.044;2022-12-26T08:42:23;51.97;;;24.73;;
33760;SDS011;20084;47.912;19.044;2022-12-26T08:44:48;51.67;;;25.23;;
33760;SDS011;20084;47.912;19.044;2022-12-26T08:47:14;47.03;;;24.40;;
33760;SDS011;20084;47.912;19.044;2022-12-26T08:49:40;50.05;;;25.50;;
33760;SDS011;20084;47.912;19.044;2022-12-26T08:52:05;48.10;;;24.17;;
33760;SDS011;20084;47.912;19.044;2022-12-26T08:54:31;51.45;;;25.17;;
33760;SDS011;20084;47.912;19.044;2022-12-26T08:56:57;42.67;;;23.23;;
33760;SDS011;20084;47.912;19.044;2022-12-26T08:59:23;45.83;;;25.67;;
33760;SDS011;20084;47.912;19.044;2022-12-26T09:01:49;43.53;;;23.30;;
33760;SDS011;20084;47.912;19.044;2022-12-26T09:04:15;47.75;;;24.73;;
33760;SDS011;20084;47.912;19.044;2022-12-26T09:06:41;43.40;;;24.08;;
33760;SDS011;20084;47.912;19.044;2022-12-26T09:09:07;50.97;;;24.50;;
33760;SDS011;20084;47.912;19.044;2022-12-26T09:11:35;47.58;;;24.90;;
33760;SDS011;20084;47.912;19.044;2022-12-26T09:14:01;51.00;;;23.55;;
33760;SDS011;20084;47.912;19.044;2022-12-26T09:16:29;42.75;;;23.73;;
33760;SDS011;20084;47.912;19.044;2022-12-26T09:18:58;44.05;;;23.63;;
33760;SDS011;20084;47.912;19.044;2022-12-26T09:21:25;46.75;;;24.05;;
33760;SDS011;20084;47.912;19.044;2022-12-26T09:23:56;40.53;;;21.77;;
33760;SDS011;20084;47.912;19.044;2022-12-26T09:26:23;41.28;;;22.23;;
33760;SDS011;20084;47.912;19.044;2022-12-26T09:28:49;44.00;;;23.02;;
33760;SDS011;20084;47.912;19.044;2022-12-26T09:31:16;48.33;;;24.33;;
33760;SDS011;20084;47.912;19.044;2022-12-26T09:33:46;47.88;;;27.90;;
33760;SDS011;20084;47.912;19.044;2022-12-26T09:36:13;52.33;;;29.50;;
33760;SDS011;20084;47.912;19.044;2022-12-26T09:38:40;37.97;;;21.58;;
33760;SDS011;20084;47.912;19.044;2022-12-26T09:46:40;40.65;;;21.75;;
33760;SDS011;20084;47.912;19.044;2022-12-26T09:49:22;40.17;;;20.92;;
33760;SDS011;20084;47.912;19.044;2022-12-26T09:51:54;37.63;;;21.50;;
33760;SDS011;20084;47.912;19.044;2022-12-26T09:54:30;38.92;;;23.38;;
33760;SDS011;20084;47.912;19.044;2022-12-26T09:56:59;39.58;;;22.35;;
33760;SDS011;20084;47.912;19.044;2022-12-26T09:59:28;40.33;;;21.60;;
33760;SDS011;20084;47.912;19.044;2022-12-26T10:01:58;46.28;;;24.40;;
33760;SDS011;20084;47.912;19.044;2022-12-26T10:04:25;69.22;;;42.75;;
33760;SDS011;20084;47.912;19.044;2022-12-26T10:06:58;40.88;;;22.55;;
33760;SDS011;20084;47.912;19.044;2022-12-26T10:09:41;43.17;;;23.27;;
33760;SDS011;20084;47.912;19.044;2022-12-26T10:12:34;42.97;;;22.80;;
33760;SDS011;20084;47.912;19.044;2022-12-26T10:25:57;43.45;;;22.10;;
33760;SDS011;20084;47.912;19.044;2022-12-26T10:30:54;45.53;;;23.15;;
33760;SDS011;20084;47.912;19.044;2022-12-26T10:33:33;44.38;;;23.73;;
33760;SDS011;20084;47.912;19.044;2022-12-26T10:36:08;43.92;;;23.13;;
33760;SDS011;20084;47.912;19.044;2022-12-26T10:38:41;42.38;;;23.02;;
33760;SDS011;20084;47.912;19.044;2022-12-26T10:41:17;50.13;;;24.35;;
33760;SDS011;20084;47.912;19.044;2022-12-26T10:43:49;48.13;;;24.67;;
33760;SDS011;20084;47.912;19.044;2022-12-26T10:48:57;41.58;;;23.10;;
33760;SDS011;20084;47.912;19.044;2022-12-26T10:51:24;38.78;;;20.95;;
33760;SDS011;20084;47.912;19.044;2022-12-26T10:53:51;48.83;;;27.23;;
33760;SDS011;20084;47.912;19.044;2022-12-26T10:56:18;40.15;;;21.50;;
33760;SDS011;20084;47.912;19.044;2022-12-26T10:58:45;41.63;;;22.83;;
33760;SDS011;20084;47.912;19.044;2022-12-26T11:01:36;40.33;;;22.10;;
33760;SDS011;20084;47.912;19.044;2022-12-26T11:04:22;43.35;;;23.67;;
33760;SDS011;20084;47.912;19.044;2022-12-26T11:06:49;44.80;;;24.05;;
33760;SDS011;20084;47.912;19.044;2022-12-26T11:09:33;43.75;;;22.98;;
33760;SDS011;20084;47.912;19.044;2022-12-26T11:12:20;39.95;;;21.33;;
33760;SDS011;20084;47.912;19.044;2022-12-26T11:14:48;47.05;;;23.15;;
33760;SDS011;20084;47.912;19.044;2022-12-26T11:17:26;44.20;;;25.10;;
33760;SDS011;20084;47.912;19.044;2022-12-26T11:22:38;38.00;;;21.80;;
33760;SDS011;20084;47.912;19.044;2022-12-26T11:27:46;43.38;;;23.20;;
33760;SDS011;20084;47.912;19.044;2022-12-26T11:30:18;43.97;;;22.65;;
33760;SDS011;20084;47.912;19.044;2022-12-26T11:35:33;38.67;;;20.73;;
33760;SDS011;20084;47.912;19.044;2022-12-26T11:38:02;40.92;;;21.73;;
33760;SDS011;20084;47.912;19.044;2022-12-26T11:40:37;40.00;;;23.30;;
33760;SDS011;20084;47.912;19.044;2022-12-26T11:43:05;44.67;;;23.48;;
33760;SDS011;20084;47.912;19.044;2022-12-26T11:45:39;46.65;;;22.83;;
33760;SDS011;20084;47.912;19.044;2022-12-26T11:48:07;45.13;;;22.85;;
33760;SDS011;20084;47.912;19.044;2022-12-26T11:50:46;46.55;;;23.63;;
33760;SDS011;20084;47.912;19.044;2022-12-26T11:53:14;48.28;;;24.02;;
33760;SDS011;20084;47.912;19.044;2022-12-26T11:55:42;46.80;;;24.27;;
33760;SDS011;20084;47.912;19.044;2022-12-26T12:01:02;55.00;;;29.38;;
33760;SDS011;20084;47.912;19.044;2022-12-26T12:16:49;51.20;;;25.73;;
33760;SDS011;20084;47.912;19.044;2022-12-26T12:19:23;48.40;;;25.63;;
33760;SDS011;20084;47.912;19.044;2022-12-26T12:49:26;49.03;;;25.25;;
33760;SDS011;20084;47.912;19.044;2022-12-26T13:00:36;47.58;;;23.80;;
33760;SDS011;20084;47.912;19.044;2022-12-26T13:03:11;48.45;;;24.15;;
33760;SDS011;20084;47.912;19.044;2022-12-26T13:11:12;40.88;;;22.98;;
33760;SDS011;20084;47.912;19.044;2022-12-26T13:13:48;41.90;;;22.73;;
33760;SDS011;20084;47.912;19.044;2022-12-26T13:16:16;45.08;;;23.88;;
33760;SDS011;20084;47.912;19.044;2022-12-26T13:18:50;43.75;;;23.02;;
33760;SDS011;20084;47.912;19.044;2022-12-26T13:21:24;43.08;;;22.98;;
33760;SDS011;20084;47.912;19.044;2022-12-26T13:23:59;37.80;;;22.17;;
33760;SDS011;20084;47.912;19.044;2022-12-26T13:29:39;42.15;;;21.45;;
33760;SDS011;20084;47.912;19.044;2022-12-26T13:32:24;43.73;;;22.57;;
33760;SDS011;20084;47.912;19.044;2022-12-26T13:34:52;39.38;;;21.95;;
33760;SDS011;20084;47.912;19.044;2022-12-26T13:42:35;37.72;;;21.38;;
33760;SDS011;20084;47.912;19.044;2022-12-26T13:51:03;41.95;;;21.67;;
33760;SDS011;20084;47.912;19.044;2022-12-26T13:53:30;44.35;;;23.45;;
33760;SDS011;20084;47.912;19.044;2022-12-26T13:55:59;42.72;;;22.35;;
33760;SDS011;20084;47.912;19.044;2022-12-26T13:58:47;42.97;;;23.25;;
33760;SDS011;20084;47.912;19.044;2022-12-26T14:06:50;48.22;;;23.80;;
33760;SDS011;20084;47.912;19.044;2022-12-26T14:12:21;42.75;;;20.70;;
33760;SDS011;20084;47.912;19.044;2022-12-26T14:21:18;44.90;;;23.58;;
33760;SDS011;20084;47.912;19.044;2022-12-26T14:24:01;43.10;;;23.95;;
33760;SDS011;20084;47.912;19.044;2022-12-26T14:26:39;51.42;;;24.67;;
33760;SDS011;20084;47.912;19.044;2022-12-26T14:29:23;45.55;;;23.17;;
33760;SDS011;20084;47.912;19.044;2022-12-26T14:34:38;46.67;;;23.60;;
33760;SDS011;20084;47.912;19.044;2022-12-26T14:55:57;49.70;;;23.50;;
33760;SDS011;20084;47.912;19.044;2022-12-26T15:03:39;50.20;;;25.37;;
33760;SDS011;20084;47.912;19.044;2022-12-26T15:31:29;34.90;;;18.50;;
33760;SDS011;20084;47.912;19.044;2022-12-26T15:39:18;34.85;;;19.90;;
33760;SDS011;20084;47.912;19.044;2022-12-26T15:41:46;36.45;;;20.05;;
33760;SDS011;20084;47.912;19.044;2022-12-26T15:44:39;36.97;;;21.45;;
33760;SDS011;20084;47.912;19.044;2022-12-26T15:50:02;33.03;;;19.83;;
33760;SDS011;20084;47.912;19.044;2022-12-26T15:57:58;43.63;;;22.63;;
33760;SDS011;20084;47.912;19.044;2022-12-26T16:00:46;37.00;;;20.83;;
33760;SDS011;20084;47.912;19.044;2022-12-26T16:06:18;38.40;;;20.13;;
33760;SDS011;20084;47.912;19.044;2022-12-26T16:11:40;39.92;;;20.80;;
33760;SDS011;20084;47.912;19.044;2022-12-26T16:14:24;38.58;;;20.98;;
33760;SDS011;20084;47.912;19.044;2022-12-26T16:16:52;34.47;;;19.98;;
33760;SDS011;20084;47.912;19.044;2022-12-26T16:19:22;33.95;;;19.85;;
33760;SDS011;20084;47.912;19.044;2022-12-26T16:21:53;54.10;;;19.83;;
33760;SDS011;20084;47.912;19.044;2022-12-26T16:24:42;47.28;;;20.52;;
33760;SDS011;20084;47.912;19.044;2022-12-26T16:27:11;41.92;;;20.98;;
33760;SDS011;20084;47.912;19.044;2022-12-26T16:32:13;33.65;;;18.33;;
33760;SDS011;20084;47.912;19.044;2022-12-26T16:34:42;47.03;;;18.23;;
33760;SDS011;20084;47.912;19.044;2022-12-26T16:37:09;39.50;;;21.42;;
33760;SDS011;20084;47.912;19.044;2022-12-26T16:39:41;54.00;;;21.17;;
33760;SDS011;20084;47.912;19.044;2022-12-26T16:42:11;37.70;;;20.33;;
33760;SDS011;20084;47.912;19.044;2022-12-26T16:44:53;38.30;;;18.70;;
33760;SDS011;20084;47.912;19.044;2022-12-26T16:47:20;46.97;;;19.48;;
33760;SDS011;20084;47.912;19.044;2022-12-26T16:49:46;40.67;;;18.98;;
33760;SDS011;20084;47.912;19.044;2022-12-26T16:57:49;43.88;;;20.10;;
33760;SDS011;20084;47.912;19.044;2022-12-26T17:00:20;53.38;;;19.13;;
33760;SDS011;20084;47.912;19.044;2022-12-26T17:02:48;49.90;;;19.60;;
33760;SDS011;20084;47.912;19.044;2022-12-26T17:05:21;55.90;;;19.13;;
33760;SDS011;20084;47.912;19.044;2022-12-26T17:07:55;54.05;;;19.75;;
33760;SDS011;20084;47.912;19.044;2022-12-26T17:10:29;42.35;;;19.83;;
33760;SDS011;20084;47.912;19.044;2022-12-26T17:13:01;35.75;;;20.10;;
33760;SDS011;20084;47.912;19.044;2022-12-26T17:15:30;56.10;;;22.50;;
33760;SDS011;20084;47.912;19.044;2022-12-26T17:18:27;44.47;;;22.77;;
33760;SDS011;20084;47.912;19.044;2022-12-26T17:21:34;45.67;;;21.48;;
33760;SDS011;20084;47.912;19.044;2022-12-26T17:26:49;37.05;;;20.08;;
33760;SDS011;20084;47.912;19.044;2022-12-26T17:29:36;33.92;;;19.15;;
33760;SDS011;20084;47.912;19.044;2022-12-26T17:32:13;35.20;;;19.80;;
33760;SDS011;20084;47.912;19.044;2022-12-26T17:34:43;57.80;;;18.27;;
33760;SDS011;20084;47.912;19.044;2022-12-26T17:37:17;36.50;;;17.85;;
33760;SDS011;20084;47.912;19.044;2022-12-26T17:39:53;42.97;;;18.50;;
33760;SDS011;20084;47.912;19.044;2022-12-26T17:42:26;41.55;;;19.85;;
33760;SDS011;20084;47.912;19.044;2022-12-26T17:44:53;36.83;;;19.38;;
33760;SDS011;20084;47.912;19.044;2022-12-26T17:47:24;35.13;;;19.58;;
33760;SDS011;20084;47.912;19.044;2022-12-26T17:49:55;52.28;;;22.67;;
33760;SDS011;20084;47.912;19.044;2022-12-26T17:52:22;46.42;;;21.05;;
33760;SDS011;20084;47.912;19.044;2022-12-26T17:54:51;45.67;;;19.25;;
33760;SDS011;20084;47.912;19.044;2022-12-26T17:57:21;61.25;;;18.88;;
33760;SDS011;20084;47.912;19.044;2022-12-26T17:59:49;69.47;;;19.27;;
33760;SDS011;20084;47.912;19.044;2022-12-26T18:02:17;77.30;;;18.77;;
33760;SDS011;20084;47.912;19.044;2022-12-26T18:04:43;84.05;;;17.77;;
33760;SDS011;20084;47.912;19.044;2022-12-26T18:07:19;60.83;;;17.85;;
33760;SDS011;20084;47.912;19.044;2022-12-26T18:09:48;54.10;;;18.17;;
33760;SDS011;20084;47.912;19.044;2022-12-26T18:12:15;67.57;;;18.38;;
33760;SDS011;20084;47.912;19.044;2022-12-26T18:14:41;53.60;;;16.48;;
33760;SDS011;20084;47.912;19.044;2022-12-26T18:17:12;78.25;;;17.85;;
33760;SDS011;20084;47.912;19.044;2022-12-26T18:19:39;55.72;;;16.67;;
33760;SDS011;20084;47.912;19.044;2022-12-26T18:22:23;59.50;;;16.42;;
33760;SDS011;20084;47.912;19.044;2022-12-26T18:24:48;53.60;;;17.08;;
33760;SDS011;20084;47.912;19.044;2022-12-26T18:27:18;54.58;;;18.20;;
33760;SDS011;20084;47.912;19.044;2022-12-26T18:29:46;63.90;;;20.20;;
33760;SDS011;20084;47.912;19.044;2022-12-26T18:32:20;64.57;;;18.35;;
33760;SDS011;20084;47.912;19.044;2022-12-26T18:34:46;55.15;;;18.27;;
33760;SDS011;20084;47.912;19.044;2022-12-26T18:37:12;34.38;;;19.02;;
33760;SDS011;20084;47.912;19.044;2022-12-26T18:39:37;62.65;;;17.90;;
33760;SDS011;20084;47.912;19.044;2022-12-26T18:42:04;64.10;;;17.25;;
33760;SDS011;20084;47.912;19.044;2022-12-26T18:44:31;43.88;;;17.27;;